Time;durP1;ratioP1;P1;durP2;ratioP2;P2;SDS_P1;SDS_P2;PMS_P1;PMS_P2;Temp;Humidity;BMP_temperature;BMP_pressure;BME280_temperature;BME280_humidity;BME280_pressure;Samples;Min_cycle;Max_cycle;Signal;HPM_P1;HPM_P2
2023/10/25 00:00:04;;;;;;;4.63;3.10;;;12.10;99.90;;;;;;5040417;28;20209;-85
2023/10/25 00:02:30;;;;;;;2.30;2.17;;;12.00;99.90;;;;;;5041003;28;20225;-85
2023/10/25 00:04:56;;;;;;;1.97;1.70;;;12.10;99.90;;;;;;5057548;28;20229;-84
2023/10/25 00:07:22;;;;;;;0.90;0.90;;;12.10;99.90;;;;;;5074010;28;20636;-85
2023/10/25 00:09:48;;;;;;;7.10;1.87;;;12.00;99.90;;;;;;5057679;28;20484;-84
2023/10/25 00:12:14;;;;;;;1.60;1.17;;;12.00;99.90;;;;;;5040313;28;20221;-85
2023/10/25 00:14:41;;;;;;;1.83;1.73;;;12.00;99.90;;;;;;5057150;28;20256;-86
2023/10/25 00:17:07;;;;;;;2.60;1.73;;;12.00;99.90;;;;;;5057294;28;20221;-85
2023/10/25 00:19:33;;;;;;;2.07;1.63;;;12.10;99.90;;;;;;5057567;28;20224;-85
2023/10/25 00:21:59;;;;;;;1.40;1.10;;;12.00;99.90;;;;;;5057262;28;20214;-85
2023/10/25 00:24:25;;;;;;;2.17;1.23;;;12.00;99.90;;;;;;5056703;28;20249;-84
2023/10/25 00:26:50;;;;;;;2.20;1.53;;;12.00;99.90;;;;;;5056875;28;20802;-84
2023/10/25 00:29:16;;;;;;;0.67;0.67;;;12.00;99.90;;;;;;5073685;28;20675;-86
2023/10/25 00:31:42;;;;;;;2.03;1.90;;;12.00;99.90;;;;;;5073248;28;20555;-85
2023/10/25 00:34:09;;;;;;;2.37;2.17;;;12.00;99.90;;;;;;5056768;28;20208;-85
2023/10/25 00:36:35;;;;;;;3.53;1.80;;;12.00;99.90;;;;;;5074759;28;20189;-83
2023/10/25 00:39:00;;;;;;;4.67;2.63;;;11.90;99.90;;;;;;5056978;28;20208;-84
2023/10/25 00:41:26;;;;;;;2.73;1.83;;;11.90;99.90;;;;;;5056993;28;20645;-84
2023/10/25 00:43:53;;;;;;;1.50;1.37;;;11.90;99.90;;;;;;5039903;28;20217;-83
2023/10/25 00:46:25;;;;;;;4.53;1.60;;;11.90;99.90;;;;;;5056625;28;20189;-84
2023/10/25 00:48:54;;;;;;;2.43;1.60;;;11.90;99.90;;;;;;5074040;28;20176;-85
2023/10/25 00:51:22;;;;;;;1.13;1.03;;;11.90;99.90;;;;;;5056427;28;20654;-84
2023/10/25 00:53:50;;;;;;;1.63;1.10;;;11.80;99.90;;;;;;5072990;28;20304;-84
2023/10/25 00:56:17;;;;;;;3.00;1.23;;;11.80;99.90;;;;;;5072999;28;20217;-84
2023/10/25 00:58:51;;;;;;;1.47;1.30;;;11.80;99.90;;;;;;5072813;28;20209;-84
2023/10/25 01:01:18;;;;;;;1.63;1.13;;;11.80;99.90;;;;;;5073747;28;20200;-85
2023/10/25 01:03:57;;;;;;;2.33;2.23;;;11.80;99.90;;;;;;5059035;28;20520;-85
2023/10/25 01:06:23;;;;;;;25.70;1.93;;;11.80;99.90;;;;;;5055690;28;20216;-84
2023/10/25 01:08:50;;;;;;;3.77;1.63;;;11.80;99.90;;;;;;5056360;28;20233;-84
2023/10/25 01:11:16;;;;;;;1.37;1.27;;;11.70;99.90;;;;;;5072444;28;20263;-85
2023/10/25 01:13:42;;;;;;;1.10;1.00;;;11.70;99.90;;;;;;5056373;28;20209;-83
2023/10/25 01:16:07;;;;;;;2.00;1.20;;;11.70;99.90;;;;;;5056330;28;20531;-84
2023/10/25 01:18:33;;;;;;;1.57;1.40;;;11.70;99.90;;;;;;5056953;28;20567;-85
2023/10/25 01:20:59;;;;;;;1.40;1.30;;;11.60;99.90;;;;;;5072411;28;20669;-83
2023/10/25 01:23:24;;;;;;;0.90;0.83;;;11.60;99.90;;;;;;5055742;28;20275;-85
2023/10/25 01:25:50;;;;;;;1.60;1.40;;;11.50;99.90;;;;;;5055552;28;20347;-85
2023/10/25 01:28:16;;;;;;;1.37;1.13;;;11.50;99.90;;;;;;5055389;28;20213;-85
2023/10/25 01:30:42;;;;;;;1.40;1.30;;;11.50;99.90;;;;;;5039589;28;20185;-84
2023/10/25 01:33:08;;;;;;;0.97;0.97;;;11.40;99.90;;;;;;5072807;28;20244;-84
2023/10/25 01:35:35;;;;;;;1.13;0.80;;;11.50;99.90;;;;;;5038763;28;20711;-85
2023/10/25 01:38:01;;;;;;;0.70;0.70;;;11.50;99.90;;;;;;5073193;28;20217;-84
2023/10/25 01:40:27;;;;;;;1.53;0.80;;;11.40;99.90;;;;;;5055078;28;20221;-84
2023/10/25 01:42:56;;;;;;;1.43;1.33;;;11.50;99.90;;;;;;5073804;28;20182;-85
2023/10/25 01:45:27;;;;;;;2.63;0.77;;;11.40;99.90;;;;;;5072084;28;20339;-84
2023/10/25 01:47:53;;;;;;;1.03;0.97;;;11.40;99.90;;;;;;5072077;28;20232;-84
2023/10/25 01:50:19;;;;;;;1.00;0.90;;;11.40;99.90;;;;;;5072752;28;20217;-85
2023/10/25 01:52:45;;;;;;;0.80;0.77;;;11.40;99.90;;;;;;5072021;28;20262;-85
2023/10/25 01:55:11;;;;;;;1.33;1.17;;;11.40;99.90;;;;;;5073200;28;20560;-84
2023/10/25 01:57:37;;;;;;;1.63;0.90;;;11.30;99.90;;;;;;5073818;28;20181;-84
2023/10/25 02:00:03;;;;;;;1.50;1.07;;;11.30;99.90;;;;;;5038512;28;20224;-84
2023/10/25 02:02:29;;;;;;;1.63;1.57;;;11.30;99.90;;;;;;5073015;28;20244;-84
2023/10/25 02:04:55;;;;;;;1.37;1.37;;;11.30;99.90;;;;;;5054893;28;20259;-83
2023/10/25 02:07:21;;;;;;;1.37;1.27;;;11.30;99.90;;;;;;5037571;28;20206;-85
2023/10/25 02:09:46;;;;;;;1.20;0.87;;;11.30;99.90;;;;;;5038718;28;20227;-84
2023/10/25 02:12:12;;;;;;;2.73;2.53;;;11.30;99.90;;;;;;5054439;28;20539;-85
2023/10/25 02:14:38;;;;;;;3.27;1.17;;;11.30;99.90;;;;;;5054597;28;20220;-84
2023/10/25 02:17:06;;;;;;;2.27;1.00;;;11.30;99.90;;;;;;5054864;28;20221;-84
2023/10/25 02:19:33;;;;;;;1.17;0.87;;;11.30;99.90;;;;;;5071104;28;20244;-85
2023/10/25 02:21:59;;;;;;;1.03;1.00;;;11.20;99.90;;;;;;5071725;28;20178;-84
2023/10/25 02:24:25;;;;;;;2.83;2.63;;;11.20;99.90;;;;;;5070896;28;20296;-83
2023/10/25 02:26:51;;;;;;;1.23;1.13;;;11.20;99.90;;;;;;5054890;28;20274;-85
2023/10/25 02:29:17;;;;;;;2.73;1.20;;;11.20;99.90;;;;;;5054461;28;20603;-85
2023/10/25 02:31:43;;;;;;;1.10;1.00;;;11.30;99.90;;;;;;5070632;28;20213;-83
2023/10/25 02:34:09;;;;;;;0.83;0.83;;;11.30;99.90;;;;;;5071724;28;20534;-86
2023/10/25 02:36:35;;;;;;;0.57;0.57;;;11.20;99.90;;;;;;5072791;28;20189;-85
2023/10/25 02:39:01;;;;;;;2.03;1.30;;;11.20;99.90;;;;;;5038174;28;20688;-84
2023/10/25 02:41:27;;;;;;;2.67;1.50;;;11.20;99.90;;;;;;5054603;28;20213;-85
2023/10/25 02:43:56;;;;;;;4.17;2.50;;;11.20;99.90;;;;;;5037750;28;20209;-84
2023/10/25 02:46:23;;;;;;;1.50;1.03;;;11.20;99.90;;;;;;5054582;28;20188;-85
2023/10/25 02:48:52;;;;;;;2.33;1.37;;;11.20;99.90;;;;;;5071661;28;20217;-85
2023/10/25 02:51:18;;;;;;;1.00;1.00;;;11.20;99.90;;;;;;5054544;28;20685;-85
2023/10/25 02:53:44;;;;;;;1.43;1.30;;;11.20;99.90;;;;;;5054629;28;20324;-84
2023/10/25 02:56:10;;;;;;;3.80;0.70;;;11.20;99.90;;;;;;5037931;28;20253;-85
2023/10/25 02:58:35;;;;;;;2.33;1.77;;;11.20;99.90;;;;;;5053880;28;20683;-84
2023/10/25 03:01:01;;;;;;;2.03;1.43;;;11.20;99.90;;;;;;5054768;28;20189;-85
2023/10/25 03:03:29;;;;;;;1.30;1.20;;;11.10;99.90;;;;;;5071730;28;20266;-84
2023/10/25 03:05:55;;;;;;;1.67;1.57;;;11.10;99.90;;;;;;5071761;28;20311;-86
2023/10/25 03:08:21;;;;;;;2.00;1.90;;;11.20;99.90;;;;;;5070424;28;20312;-84
2023/10/25 03:10:47;;;;;;;1.83;1.50;;;11.10;99.90;;;;;;5072082;28;20209;-84
2023/10/25 03:13:13;;;;;;;2.20;2.10;;;11.20;99.90;;;;;;5070202;28;20632;-84
2023/10/25 03:15:38;;;;;;;3.07;1.67;;;11.10;99.90;;;;;;5070977;28;20198;-85
2023/10/25 03:18:05;;;;;;;1.70;1.60;;;11.10;99.90;;;;;;5054693;28;20276;-85
2023/10/25 03:20:32;;;;;;;1.47;1.27;;;11.10;99.90;;;;;;5074673;28;20223;-85
2023/10/25 03:22:57;;;;;;;1.53;1.40;;;11.20;99.90;;;;;;5075842;28;20209;-85
2023/10/25 03:25:23;;;;;;;1.37;1.27;;;11.20;99.90;;;;;;5057885;28;20174;-85
2023/10/25 03:27:49;;;;;;;1.60;1.50;;;11.10;99.90;;;;;;5042021;28;20686;-85
2023/10/25 03:30:16;;;;;;;1.47;1.37;;;11.10;99.90;;;;;;5074517;28;20634;-86
2023/10/25 03:32:43;;;;;;;1.00;1.00;;;11.20;99.90;;;;;;5074173;28;20239;-85
2023/10/25 03:35:09;;;;;;;1.47;1.37;;;11.20;99.90;;;;;;5057833;28;20221;-86
2023/10/25 03:37:39;;;;;;;2.00;1.80;;;11.20;99.90;;;;;;5075380;28;20689;-85
2023/10/25 03:40:07;;;;;;;2.37;2.17;;;11.10;99.90;;;;;;5058792;28;20205;-85
2023/10/25 03:42:33;;;;;;;1.77;1.40;;;11.10;99.90;;;;;;5074522;28;20231;-86
2023/10/25 03:44:59;;;;;;;1.70;1.07;;;11.20;99.90;;;;;;5057984;28;20228;-85
2023/10/25 03:47:24;;;;;;;6.20;1.67;;;11.20;99.90;;;;;;5074233;28;20653;-86
2023/10/25 03:49:53;;;;;;;2.40;2.10;;;11.10;99.90;;;;;;5057574;28;20293;-86
2023/10/25 03:52:19;;;;;;;3.73;2.43;;;11.10;99.90;;;;;;5057871;28;20178;-85
2023/10/25 03:54:45;;;;;;;1.70;1.60;;;11.10;99.90;;;;;;5075910;28;20561;-85
2023/10/25 03:57:11;;;;;;;2.07;1.93;;;11.10;99.90;;;;;;5074739;28;20647;-86
2023/10/25 03:59:36;;;;;;;1.53;1.37;;;11.10;99.90;;;;;;5075207;28;20680;-84
2023/10/25 04:02:02;;;;;;;1.37;0.97;;;11.10;99.90;;;;;;5057151;28;20235;-85
2023/10/25 04:04:28;;;;;;;3.93;2.53;;;11.10;99.90;;;;;;5040629;28;20217;-85
2023/10/25 04:06:54;;;;;;;2.20;1.67;;;11.00;99.90;;;;;;5074399;28;20538;-85
2023/10/25 04:09:19;;;;;;;1.53;1.27;;;11.00;99.90;;;;;;5073744;28;20221;-85
2023/10/25 04:11:45;;;;;;;3.73;2.53;;;11.00;99.90;;;;;;5057101;28;20705;-85
2023/10/25 04:14:11;;;;;;;12.27;2.90;;;11.00;99.90;;;;;;5040264;28;20237;-85
2023/10/25 04:16:37;;;;;;;7.03;2.20;;;11.10;99.90;;;;;;5073168;28;20689;-84
2023/10/25 04:19:03;;;;;;;2.73;1.63;;;11.10;99.90;;;;;;5056913;28;20642;-86
2023/10/25 04:21:29;;;;;;;2.73;1.87;;;11.10;99.90;;;;;;5057308;28;20221;-85
2023/10/25 04:23:55;;;;;;;2.10;1.27;;;11.10;99.90;;;;;;5073405;28;20232;-85
2023/10/25 04:26:20;;;;;;;3.43;3.13;;;11.00;99.90;;;;;;5056565;28;20582;-86
2023/10/25 04:28:46;;;;;;;3.10;2.83;;;11.00;99.90;;;;;;5039628;28;20221;-85
2023/10/25 04:31:12;;;;;;;4.33;3.60;;;11.00;99.90;;;;;;5073254;28;20178;-86
2023/10/25 04:33:39;;;;;;;7.50;3.70;;;11.10;99.90;;;;;;5073406;28;20225;-85
2023/10/25 04:36:05;;;;;;;4.40;3.67;;;11.00;99.90;;;;;;5057167;28;20225;-85
2023/10/25 04:38:32;;;;;;;3.53;2.83;;;11.00;99.90;;;;;;5074202;28;20213;-85
2023/10/25 04:40:58;;;;;;;5.37;2.90;;;11.00;99.90;;;;;;5074427;28;20201;-85
2023/10/25 04:43:23;;;;;;;2.27;2.10;;;10.90;99.90;;;;;;5056524;28;20264;-85
2023/10/25 04:45:51;;;;;;;3.87;3.10;;;10.90;99.90;;;;;;5073548;28;20633;-85
2023/10/25 04:48:17;;;;;;;3.17;2.87;;;10.90;99.90;;;;;;5056892;28;20676;-86
2023/10/25 04:50:44;;;;;;;2.53;2.33;;;10.90;99.90;;;;;;5056663;28;20782;-84
2023/10/25 04:53:10;;;;;;;3.97;2.70;;;10.80;99.90;;;;;;5072760;28;20263;-86
2023/10/25 04:55:36;;;;;;;3.87;3.57;;;10.80;99.90;;;;;;5073292;28;20217;-85
2023/10/25 04:58:03;;;;;;;3.10;2.90;;;10.70;99.90;;;;;;5073223;28;20174;-85
2023/10/25 05:00:30;;;;;;;3.23;3.03;;;10.70;99.90;;;;;;5056281;28;20217;-85
2023/10/25 05:02:56;;;;;;;4.33;3.07;;;10.70;99.90;;;;;;5073061;28;20229;-86
2023/10/25 05:05:21;;;;;;;4.93;4.13;;;10.70;99.90;;;;;;5056118;28;20217;-85
2023/10/25 05:07:48;;;;;;;8.33;4.10;;;10.70;99.90;;;;;;5074261;28;20303;-85
2023/10/25 05:10:14;;;;;;;5.20;4.03;;;10.70;99.90;;;;;;5039223;28;20182;-85
2023/10/25 05:12:45;;;;;;;4.07;3.13;;;10.70;99.90;;;;;;5056460;28;20636;-85
2023/10/25 05:15:13;;;;;;;9.23;4.03;;;10.70;99.90;;;;;;5056590;28;20205;-86
2023/10/25 05:17:40;;;;;;;6.33;4.60;;;10.70;99.90;;;;;;5056440;28;20300;-85
2023/10/25 05:20:07;;;;;;;4.87;4.33;;;10.70;99.90;;;;;;5072603;28;20247;-85
2023/10/25 05:23:03;;;;;;;5.33;3.93;;;10.70;99.90;;;;;;5073479;28;20243;-85
2023/10/25 05:25:28;;;;;;;5.10;3.60;;;10.70;99.90;;;;;;5052014;28;20213;-84
2023/10/25 05:27:54;;;;;;;7.03;4.60;;;10.80;99.90;;;;;;5072774;28;20205;-86
2023/10/25 05:30:21;;;;;;;6.10;4.13;;;10.80;99.90;;;;;;5056023;28;20565;-85
2023/10/25 05:32:52;;;;;;;7.20;4.20;;;10.80;99.90;;;;;;5073875;28;20237;-85
2023/10/25 05:35:18;;;;;;;3.23;2.93;;;10.80;99.90;;;;;;5072593;28;20229;-85
2023/10/25 05:37:44;;;;;;;7.93;3.50;;;10.80;99.90;;;;;;5055691;28;20224;-85
2023/10/25 05:40:10;;;;;;;6.37;4.57;;;10.70;99.90;;;;;;5072176;28;20625;-86
2023/10/25 05:42:47;;;;;;;7.70;4.27;;;10.70;99.90;;;;;;5072819;28;20271;-84
2023/10/25 05:45:13;;;;;;;4.80;2.97;;;10.70;99.90;;;;;;5073263;28;20220;-86
2023/10/25 05:47:40;;;;;;;3.23;2.93;;;10.70;99.90;;;;;;5071960;28;20306;-84
2023/10/25 05:50:07;;;;;;;6.00;4.37;;;10.60;99.90;;;;;;5073272;28;20209;-86
2023/10/25 05:52:34;;;;;;;6.10;3.23;;;10.60;99.90;;;;;;5072516;28;20243;-86
2023/10/25 05:55:00;;;;;;;4.73;1.40;;;10.50;99.90;;;;;;5055614;28;20185;-86
2023/10/25 05:57:26;;;;;;;4.67;3.13;;;10.50;99.90;;;;;;5072018;28;20316;-87
2023/10/25 05:59:52;;;;;;;4.23;2.03;;;10.50;99.90;;;;;;5071797;28;20248;-86
2023/10/25 06:02:22;;;;;;;7.20;3.43;;;10.50;99.90;;;;;;5071797;28;20661;-90
2023/10/25 06:04:48;;;;;;;11.70;5.23;;;10.50;99.90;;;;;;5072866;28;20239;-86
2023/10/25 06:07:15;;;;;;;5.10;2.77;;;10.40;99.90;;;;;;5071684;28;20210;-86
2023/10/25 06:09:41;;;;;;;5.40;2.43;;;10.30;99.90;;;;;;5072043;28;20192;-86
2023/10/25 06:12:08;;;;;;;5.37;2.70;;;10.30;99.90;;;;;;5073117;28;20220;-86
2023/10/25 06:14:34;;;;;;;4.37;3.43;;;10.30;99.90;;;;;;5071399;28;20291;-85
2023/10/25 06:17:00;;;;;;;2.47;2.27;;;10.30;99.90;;;;;;5054802;28;20656;-86
2023/10/25 06:19:27;;;;;;;4.57;3.00;;;10.20;99.90;;;;;;5054136;28;20180;-83
2023/10/25 06:21:54;;;;;;;4.83;3.63;;;10.20;99.90;;;;;;5055198;28;20173;-86
2023/10/25 06:24:20;;;;;;;7.40;5.40;;;10.20;99.90;;;;;;5072858;28;20266;-86
2023/10/25 06:26:47;;;;;;;7.20;3.70;;;10.30;99.90;;;;;;5054818;28;20233;-86
2023/10/25 06:29:13;;;;;;;3.87;2.93;;;10.20;99.90;;;;;;5054478;28;20282;-86
2023/10/25 06:31:39;;;;;;;4.37;3.83;;;10.20;99.90;;;;;;5071064;28;20292;-86
2023/10/25 06:34:04;;;;;;;5.60;3.40;;;10.20;99.90;;;;;;5055627;28;20687;-85
2023/10/25 06:36:34;;;;;;;4.73;4.23;;;10.20;99.90;;;;;;5055370;28;20600;-86
2023/10/25 06:39:07;;;;;;;4.33;3.27;;;10.20;99.90;;;;;;5054852;28;20221;-87
2023/10/25 06:41:35;;;;;;;3.50;3.20;;;10.40;99.90;;;;;;5071594;28;20300;-86
2023/10/25 06:44:01;;;;;;;4.80;3.90;;;10.30;99.90;;;;;;5072589;28;20544;-86
2023/10/25 06:46:27;;;;;;;6.03;4.67;;;10.40;99.90;;;;;;5071355;28;20193;-86
2023/10/25 06:48:54;;;;;;;4.30;4.00;;;10.50;99.90;;;;;;5072976;28;20212;-86
2023/10/25 06:51:20;;;;;;;5.00;4.07;;;10.60;99.90;;;;;;5071310;28;20232;-86
2023/10/25 06:53:46;;;;;;;3.87;2.87;;;10.80;99.90;;;;;;5071082;28;20217;-87
2023/10/25 06:56:13;;;;;;;6.73;5.67;;;10.70;99.90;;;;;;5072434;28;20315;-86
2023/10/25 06:58:40;;;;;;;3.30;3.00;;;10.70;99.90;;;;;;5054332;28;20670;-85
2023/10/25 07:01:07;;;;;;;3.80;2.90;;;10.70;99.90;;;;;;5072846;28;20177;-85
2023/10/25 07:03:39;;;;;;;2.57;2.13;;;10.70;99.90;;;;;;5071499;28;20546;-85
2023/10/25 07:06:06;;;;;;;4.67;2.90;;;10.70;99.90;;;;;;5055038;28;20217;-86
2023/10/25 07:08:32;;;;;;;4.73;3.87;;;10.70;99.90;;;;;;5071136;28;20302;-85
2023/10/25 07:10:58;;;;;;;3.77;3.47;;;10.80;99.90;;;;;;5037851;28;20220;-86
2023/10/25 07:13:24;;;;;;;4.67;3.17;;;10.80;99.90;;;;;;5037466;28;20196;-86
2023/10/25 07:15:51;;;;;;;3.77;3.23;;;11.00;99.90;;;;;;5073355;28;20614;-85
2023/10/25 07:18:17;;;;;;;2.87;2.63;;;11.10;99.90;;;;;;5072046;28;20236;-86
2023/10/25 07:20:43;;;;;;;3.63;3.17;;;11.40;99.90;;;;;;5072115;28;20209;-86
2023/10/25 07:23:08;;;;;;;5.00;4.60;;;11.60;99.90;;;;;;5070772;28;20298;-85
2023/10/25 07:25:34;;;;;;;3.53;3.23;;;11.60;99.90;;;;;;5054044;28;20224;-86
2023/10/25 07:28:00;;;;;;;3.57;3.20;;;11.70;99.90;;;;;;5054916;28;20627;-86
2023/10/25 07:30:26;;;;;;;5.70;5.03;;;11.80;99.90;;;;;;5071818;28;20688;-86
2023/10/25 07:32:52;;;;;;;8.03;4.37;;;11.60;99.90;;;;;;5070636;28;20263;-86
2023/10/25 07:35:18;;;;;;;3.77;3.47;;;11.50;99.90;;;;;;5054111;28;20304;-86
2023/10/25 07:37:46;;;;;;;4.67;3.17;;;11.60;99.90;;;;;;5054506;28;20292;-87
2023/10/25 07:40:12;;;;;;;4.57;4.17;;;11.50;99.90;;;;;;5070623;28;20209;-86
2023/10/25 07:42:38;;;;;;;6.17;2.27;;;11.50;99.90;;;;;;5070862;28;20227;-87
2023/10/25 07:45:04;;;;;;;2.40;2.10;;;11.50;99.90;;;;;;5072060;28;20216;-87
2023/10/25 07:47:30;;;;;;;11.83;3.00;;;11.50;99.90;;;;;;5071918;28;20657;-86
2023/10/25 07:49:56;;;;;;;3.43;3.13;;;11.60;99.90;;;;;;5070712;28;20213;-85
2023/10/25 07:52:23;;;;;;;3.13;2.83;;;12.00;99.90;;;;;;5020923;28;20215;-85
2023/10/25 07:54:49;;;;;;;4.43;4.03;;;12.40;99.90;;;;;;5071466;28;20177;-86
2023/10/25 07:57:15;;;;;;;5.27;3.23;;;12.60;99.90;;;;;;5053488;28;20229;-86
2023/10/25 07:59:41;;;;;;;4.30;3.80;;;12.50;99.90;;;;;;5071719;28;20291;-86
2023/10/25 08:02:07;;;;;;;4.60;4.10;;;12.20;99.90;;;;;;5053902;28;20261;-86
2023/10/25 08:04:32;;;;;;;5.80;4.37;;;12.00;99.90;;;;;;5071514;28;20213;-86
2023/10/25 08:06:59;;;;;;;26.33;3.97;;;11.70;99.90;;;;;;5057982;28;20716;-86
2023/10/25 08:09:25;;;;;;;3.97;3.60;;;11.50;99.90;;;;;;5073990;28;20581;-86
2023/10/25 08:11:52;;;;;;;4.03;2.73;;;11.30;99.90;;;;;;5057224;28;20263;-85
2023/10/25 08:14:18;;;;;;;2.63;1.83;;;11.00;99.90;;;;;;5057543;28;20279;-85
2023/10/25 08:16:45;;;;;;;2.50;2.30;;;11.00;99.90;;;;;;5073896;28;20216;-85
2023/10/25 08:19:11;;;;;;;3.10;2.67;;;10.90;99.90;;;;;;5074617;28;20572;-87
2023/10/25 08:21:37;;;;;;;3.87;2.10;;;10.80;99.90;;;;;;5074501;28;20220;-86
2023/10/25 08:24:07;;;;;;;1.87;1.70;;;10.80;99.90;;;;;;5057614;28;20216;-86
2023/10/25 08:26:37;;;;;;;3.03;2.30;;;10.80;99.90;;;;;;5073705;28;20221;-86
2023/10/25 08:29:03;;;;;;;3.23;2.93;;;10.70;99.90;;;;;;5057543;28;20279;-86
2023/10/25 08:31:29;;;;;;;2.33;2.10;;;10.70;99.90;;;;;;5057220;28;20213;-85
2023/10/25 08:33:54;;;;;;;8.53;4.47;;;10.70;99.90;;;;;;5074229;28;20371;-86
2023/10/25 08:36:20;;;;;;;3.23;2.10;;;10.60;99.90;;;;;;5057225;28;20236;-86
2023/10/25 08:38:46;;;;;;;4.50;4.10;;;10.60;99.90;;;;;;5074811;28;20223;-86
2023/10/25 08:41:12;;;;;;;2.63;2.07;;;10.60;99.90;;;;;;5074569;28;20221;-86
2023/10/25 08:43:39;;;;;;;1.90;1.77;;;10.60;99.90;;;;;;5056696;28;20712;-87
2023/10/25 08:46:05;;;;;;;1.83;1.70;;;10.60;99.90;;;;;;5058101;28;20181;-87
2023/10/25 08:48:32;;;;;;;4.17;2.43;;;10.60;99.90;;;;;;5073543;28;20252;-85
2023/10/25 08:51:03;;;;;;;2.63;2.40;;;10.60;99.90;;;;;;5074532;28;20213;-88
2023/10/25 08:53:29;;;;;;;1.63;1.53;;;10.70;99.90;;;;;;5073815;28;20304;-84
2023/10/25 08:55:57;;;;;;;1.30;1.20;;;10.60;99.90;;;;;;5056654;28;20209;-86
2023/10/25 08:58:24;;;;;;;7.57;2.47;;;10.60;99.90;;;;;;5073128;28;20205;-87
2023/10/25 09:00:52;;;;;;;1.57;1.47;;;10.60;99.90;;;;;;5075647;28;20227;-86
2023/10/25 09:03:33;;;;;;;2.77;1.97;;;10.70;99.90;;;;;;5056396;28;20732;-85
2023/10/25 09:06:04;;;;;;;3.07;2.07;;;10.70;99.90;;;;;;5072937;28;20557;-84
2023/10/25 09:08:33;;;;;;;1.77;1.43;;;10.80;99.90;;;;;;5056514;28;20676;-85
2023/10/25 09:11:08;;;;;;;1.60;1.40;;;10.80;99.90;;;;;;5056378;28;20217;-85
2023/10/25 09:13:37;;;;;;;1.17;1.07;;;10.80;99.90;;;;;;5072847;28;20708;-84
2023/10/25 09:16:04;;;;;;;4.27;1.50;;;10.80;99.90;;;;;;5073386;28;20181;-84
2023/10/25 09:18:34;;;;;;;6.43;1.80;;;10.90;99.90;;;;;;5074126;28;20240;-85
2023/10/25 09:21:03;;;;;;;2.73;1.80;;;10.90;99.90;;;;;;5072601;28;20305;-84
2023/10/25 09:23:29;;;;;;;4.33;3.30;;;10.90;99.90;;;;;;5056010;28;20213;-84
2023/10/25 09:25:57;;;;;;;3.57;2.43;;;11.00;99.90;;;;;;5077266;28;20571;-83
2023/10/25 09:28:27;;;;;;;1.43;1.33;;;11.00;99.90;;;;;;5062303;28;20206;-83
2023/10/25 09:30:55;;;;;;;1.60;1.50;;;11.10;99.90;;;;;;5065072;28;20598;-84
2023/10/25 09:33:23;;;;;;;1.40;1.30;;;11.10;99.90;;;;;;5080206;28;20272;-83
2023/10/25 09:35:56;;;;;;;2.20;1.97;;;11.20;99.90;;;;;;5059963;28;20228;-84
2023/10/25 09:38:22;;;;;;;2.37;1.77;;;11.30;99.90;;;;;;5076242;28;20245;-85
2023/10/25 09:40:49;;;;;;;2.70;2.07;;;11.30;99.90;;;;;;5072609;28;20213;-82
2023/10/25 09:43:20;;;;;;;4.60;2.63;;;11.50;99.90;;;;;;5058371;28;20173;-82
2023/10/25 09:45:56;;;;;;;1.47;1.37;;;11.40;99.90;;;;;;5059217;28;20173;-84
2023/10/25 09:48:23;;;;;;;2.23;1.80;;;11.50;99.90;;;;;;5075059;28;20251;-84
2023/10/25 09:51:07;;;;;;;2.40;2.07;;;11.50;99.90;;;;;;5075369;28;20217;-83
2023/10/25 09:53:40;;;;;;;6.63;3.40;;;11.60;99.90;;;;;;5070013;28;20230;-84
2023/10/25 09:56:08;;;;;;;5.17;3.07;;;11.60;99.90;;;;;;5077183;28;20247;-84
2023/10/25 09:58:35;;;;;;;2.03;1.77;;;11.50;99.90;;;;;;5076590;28;20225;-84
2023/10/25 10:01:05;;;;;;;2.77;2.53;;;11.60;99.90;;;;;;5059472;28;20782;-86
2023/10/25 10:04:06;;;;;;;6.93;2.47;;;11.60;99.90;;;;;;5075633;28;20210;-84
2023/10/25 10:07:12;;;;;;;7.13;2.63;;;11.70;99.90;;;;;;5069506;28;20217;-83
2023/10/25 10:10:12;;;;;;;2.70;2.37;;;11.70;99.90;;;;;;5073068;28;20221;-83
2023/10/25 10:12:45;;;;;;;1.33;0.90;;;11.80;99.90;;;;;;5073073;28;20239;-83
2023/10/25 10:15:16;;;;;;;1.83;1.67;;;12.00;99.90;;;;;;5073855;28;20244;-80
2023/10/25 10:17:43;;;;;;;2.03;1.87;;;11.90;99.90;;;;;;5072136;28;20616;-81
2023/10/25 10:20:30;;;;;;;2.13;1.60;;;12.00;99.90;;;;;;5073933;28;20209;-84
2023/10/25 10:23:04;;;;;;;3.80;2.47;;;11.90;99.90;;;;;;5073253;28;20237;-83
2023/10/25 10:25:45;;;;;;;2.47;1.77;;;12.00;99.90;;;;;;5056662;28;20212;-83
2023/10/25 10:28:11;;;;;;;1.97;1.87;;;12.00;99.90;;;;;;5071194;28;20215;-83
2023/10/25 10:30:41;;;;;;;2.70;2.50;;;12.00;99.90;;;;;;5072416;28;20677;-84
2023/10/25 10:33:13;;;;;;;7.77;1.83;;;12.10;99.90;;;;;;5072670;28;20244;-82
2023/10/25 10:35:49;;;;;;;2.77;2.57;;;12.00;99.90;;;;;;5074729;28;20221;-82
2023/10/25 10:38:16;;;;;;;1.43;1.33;;;12.10;99.90;;;;;;5074350;28;20232;-82
2023/10/25 10:40:42;;;;;;;3.60;2.03;;;12.10;99.90;;;;;;5072791;28;20213;-80
2023/10/25 10:43:10;;;;;;;5.03;2.40;;;12.10;99.90;;;;;;5074583;28;20204;-83
2023/10/25 10:45:39;;;;;;;2.13;1.67;;;12.20;99.90;;;;;;5076957;28;20177;-83
2023/10/25 10:48:30;;;;;;;2.80;2.60;;;12.30;99.90;;;;;;5061011;28;20231;-85
2023/10/25 10:50:57;;;;;;;4.33;2.00;;;12.30;99.90;;;;;;5079465;28;20221;-86
2023/10/25 10:53:27;;;;;;;2.20;2.10;;;12.30;99.90;;;;;;5078163;28;20225;-84
2023/10/25 10:56:09;;;;;;;2.13;2.03;;;12.40;99.90;;;;;;5076834;28;20282;-86
2023/10/25 10:58:37;;;;;;;1.67;1.57;;;12.40;99.90;;;;;;5071386;28;20213;-87
2023/10/25 11:01:03;;;;;;;2.07;1.53;;;12.40;99.90;;;;;;5072612;28;20230;-87
2023/10/25 11:03:29;;;;;;;2.53;2.10;;;12.50;99.90;;;;;;5072064;28;20225;-87
2023/10/25 11:05:57;;;;;;;2.13;1.93;;;12.60;99.90;;;;;;5071247;28;20239;-86
2023/10/25 11:08:23;;;;;;;4.63;2.70;;;12.60;99.90;;;;;;5065158;28;20315;-86
2023/10/25 11:10:49;;;;;;;4.83;2.60;;;12.60;99.90;;;;;;5071363;28;20213;-88
2023/10/25 11:13:17;;;;;;;3.60;3.30;;;12.60;99.90;;;;;;5071556;28;20192;-88
2023/10/25 11:15:43;;;;;;;2.90;1.80;;;12.70;99.90;;;;;;5072602;28;20169;-84
2023/10/25 11:18:10;;;;;;;1.57;1.47;;;12.80;99.90;;;;;;5067120;28;20217;-85
2023/10/25 11:20:39;;;;;;;2.30;1.50;;;12.70;99.90;;;;;;5070579;28;20359;-84
2023/10/25 11:23:05;;;;;;;3.60;2.20;;;12.60;99.90;;;;;;5070858;28;20358;-84
2023/10/25 11:25:31;;;;;;;1.93;1.83;;;12.60;99.90;;;;;;5037532;28;20308;-84
2023/10/25 11:27:57;;;;;;;2.33;1.50;;;12.70;99.90;;;;;;5072486;28;20204;-85
2023/10/25 11:30:23;;;;;;;4.23;1.87;;;12.70;99.90;;;;;;5053716;28;20225;-83
2023/10/25 11:32:49;;;;;;;6.87;2.37;;;12.70;99.90;;;;;;5037181;28;20701;-84
2023/10/25 11:35:25;;;;;;;4.63;1.63;;;12.80;99.90;;;;;;5071925;28;20283;-83
2023/10/25 11:37:52;;;;;;;2.03;1.87;;;12.80;99.90;;;;;;5070929;28;20227;-84
2023/10/25 11:40:19;;;;;;;4.00;2.53;;;12.90;99.90;;;;;;5073092;28;20231;-84
2023/10/25 11:42:45;;;;;;;1.53;1.43;;;12.90;99.90;;;;;;5058116;28;20216;-84
2023/10/25 11:45:10;;;;;;;1.90;1.70;;;13.00;99.90;;;;;;5057613;28;20217;-84
2023/10/25 11:47:38;;;;;;;2.70;1.93;;;13.10;99.90;;;;;;5074368;28;20252;-83
2023/10/25 11:50:05;;;;;;;4.17;2.13;;;13.10;99.90;;;;;;5075665;28;20266;-85
2023/10/25 11:52:32;;;;;;;3.67;2.10;;;13.10;99.90;;;;;;5075671;28;20292;-84
2023/10/25 11:55:01;;;;;;;4.17;2.03;;;13.20;99.90;;;;;;5075897;28;20185;-85
2023/10/25 11:57:27;;;;;;;5.20;2.33;;;13.20;99.90;;;;;;5075152;28;20229;-84
2023/10/25 11:59:53;;;;;;;1.30;1.20;;;13.20;99.90;;;;;;5075651;28;20302;-84
2023/10/25 12:02:21;;;;;;;2.67;2.27;;;13.20;99.90;;;;;;5058083;28;20228;-86
2023/10/25 12:04:48;;;;;;;4.43;2.33;;;13.20;99.90;;;;;;5057844;28;20213;-85
2023/10/25 12:07:13;;;;;;;2.33;1.73;;;13.20;99.90;;;;;;5075182;28;20701;-84
2023/10/25 12:09:41;;;;;;;1.80;1.17;;;13.20;99.90;;;;;;5074781;28;20202;-84
2023/10/25 12:12:07;;;;;;;3.30;2.57;;;13.30;99.90;;;;;;5058015;28;20217;-84
2023/10/25 12:14:33;;;;;;;3.67;2.43;;;13.30;99.90;;;;;;5057786;28;20217;-85
2023/10/25 12:16:59;;;;;;;1.90;1.80;;;13.30;99.90;;;;;;5073738;28;20560;-81
2023/10/25 12:19:25;;;;;;;1.50;1.40;;;13.30;99.90;;;;;;5056924;28;20332;-83
2023/10/25 12:21:56;;;;;;;2.00;1.70;;;13.20;99.90;;;;;;5057473;28;20178;-83
2023/10/25 12:24:22;;;;;;;1.33;1.23;;;13.30;99.90;;;;;;5049064;28;20270;-84
2023/10/25 12:26:48;;;;;;;3.60;2.03;;;13.30;99.90;;;;;;5057047;28;20221;-83
2023/10/25 12:29:14;;;;;;;2.00;1.40;;;13.30;99.90;;;;;;5074959;28;20548;-83
2023/10/25 12:31:40;;;;;;;5.07;1.27;;;13.30;99.90;;;;;;5056266;28;20223;-83
2023/10/25 12:34:06;;;;;;;1.70;1.43;;;13.30;99.90;;;;;;5073678;28;20241;-83
2023/10/25 12:36:31;;;;;;;2.73;1.50;;;13.30;99.90;;;;;;5073185;28;20278;-83
2023/10/25 12:38:57;;;;;;;2.47;2.10;;;13.30;99.90;;;;;;5057042;28;20570;-83
2023/10/25 12:41:23;;;;;;;2.07;1.87;;;13.20;99.90;;;;;;5074368;28;20221;-83
2023/10/25 12:43:49;;;;;;;2.93;2.03;;;13.20;99.90;;;;;;5073108;28;20631;-84
2023/10/25 12:46:14;;;;;;;1.80;1.30;;;13.20;99.90;;;;;;5056089;28;20189;-83